sensor_id;sensor_type;location;lat;lon;timestamp;P1;durP1;ratioP1;P2;durP2;ratioP2
11541;SDS011;5827;49.482;7.716;2023-02-02T00:00:19;14.47;;;4.00;;
11541;SDS011;5827;49.482;7.716;2023-02-02T00:02:20;13.13;;;4.43;;
11541;SDS011;5827;49.482;7.716;2023-02-02T00:04:22;14.73;;;4.60;;
11541;SDS011;5827;49.482;7.716;2023-02-02T00:06:27;13.40;;;4.37;;
11541;SDS011;5827;49.482;7.716;2023-02-02T00:08:30;12.53;;;3.67;;
11541;SDS011;5827;49.482;7.716;2023-02-02T00:10:31;12.40;;;3.90;;
11541;SDS011;5827;49.482;7.716;2023-02-02T00:12:33;16.23;;;4.30;;
11541;SDS011;5827;49.482;7.716;2023-02-02T00:14:34;12.33;;;4.10;;
11541;SDS011;5827;49.482;7.716;2023-02-02T00:16:42;12.87;;;4.20;;
11541;SDS011;5827;49.482;7.716;2023-02-02T00:18:44;16.17;;;4.10;;
11541;SDS011;5827;49.482;7.716;2023-02-02T00:20:46;13.87;;;3.83;;
11541;SDS011;5827;49.482;7.716;2023-02-02T00:22:49;15.63;;;4.77;;
11541;SDS011;5827;49.482;7.716;2023-02-02T00:24:51;18.03;;;4.77;;
11541;SDS011;5827;49.482;7.716;2023-02-02T00:26:54;14.60;;;4.17;;
11541;SDS011;5827;49.482;7.716;2023-02-02T00:28:56;17.90;;;4.00;;
11541;SDS011;5827;49.482;7.716;2023-02-02T00:30:57;13.50;;;4.30;;
11541;SDS011;5827;49.482;7.716;2023-02-02T00:32:59;17.87;;;4.20;;
11541;SDS011;5827;49.482;7.716;2023-02-02T00:35:00;15.40;;;4.30;;
11541;SDS011;5827;49.482;7.716;2023-02-02T00:37:02;16.77;;;4.67;;
11541;SDS011;5827;49.482;7.716;2023-02-02T00:39:05;14.23;;;4.37;;
11541;SDS011;5827;49.482;7.716;2023-02-02T00:41:07;13.83;;;4.10;;
11541;SDS011;5827;49.482;7.716;2023-02-02T00:43:08;15.60;;;4.27;;
11541;SDS011;5827;49.482;7.716;2023-02-02T00:45:12;16.23;;;4.30;;
11541;SDS011;5827;49.482;7.716;2023-02-02T00:47:16;15.63;;;3.90;;
11541;SDS011;5827;49.482;7.716;2023-02-02T00:49:18;15.60;;;4.20;;
11541;SDS011;5827;49.482;7.716;2023-02-02T00:51:20;13.97;;;4.47;;
11541;SDS011;5827;49.482;7.716;2023-02-02T00:53:22;17.57;;;4.83;;
11541;SDS011;5827;49.482;7.716;2023-02-02T00:55:25;20.20;;;4.80;;
11541;SDS011;5827;49.482;7.716;2023-02-02T00:57:26;16.43;;;5.10;;
11541;SDS011;5827;49.482;7.716;2023-02-02T00:59:28;14.90;;;4.70;;
11541;SDS011;5827;49.482;7.716;2023-02-02T01:01:29;15.90;;;4.43;;
11541;SDS011;5827;49.482;7.716;2023-02-02T01:03:31;17.73;;;5.07;;
11541;SDS011;5827;49.482;7.716;2023-02-02T01:05:33;17.07;;;4.67;;
11541;SDS011;5827;49.482;7.716;2023-02-02T01:07:35;15.63;;;4.60;;
11541;SDS011;5827;49.482;7.716;2023-02-02T01:09:36;14.37;;;4.80;;
11541;SDS011;5827;49.482;7.716;2023-02-02T01:11:39;19.00;;;5.13;;
11541;SDS011;5827;49.482;7.716;2023-02-02T01:13:40;13.20;;;4.60;;
11541;SDS011;5827;49.482;7.716;2023-02-02T01:15:42;18.60;;;4.50;;
11541;SDS011;5827;49.482;7.716;2023-02-02T01:17:44;17.43;;;4.80;;
11541;SDS011;5827;49.482;7.716;2023-02-02T01:19:45;17.90;;;5.13;;
11541;SDS011;5827;49.482;7.716;2023-02-02T01:21:47;20.37;;;5.63;;
11541;SDS011;5827;49.482;7.716;2023-02-02T01:23:50;17.23;;;5.50;;
11541;SDS011;5827;49.482;7.716;2023-02-02T01:25:52;20.97;;;6.30;;
11541;SDS011;5827;49.482;7.716;2023-02-02T01:27:56;18.57;;;6.27;;
11541;SDS011;5827;49.482;7.716;2023-02-02T01:29:57;26.47;;;7.77;;
11541;SDS011;5827;49.482;7.716;2023-02-02T01:31:59;27.07;;;8.37;;
11541;SDS011;5827;49.482;7.716;2023-02-02T01:34:00;23.97;;;7.50;;
11541;SDS011;5827;49.482;7.716;2023-02-02T01:36:03;19.33;;;6.10;;
11541;SDS011;5827;49.482;7.716;2023-02-02T01:38:06;22.23;;;6.53;;
11541;SDS011;5827;49.482;7.716;2023-02-02T01:40:08;17.10;;;5.93;;
11541;SDS011;5827;49.482;7.716;2023-02-02T01:42:12;20.17;;;6.23;;
11541;SDS011;5827;49.482;7.716;2023-02-02T01:46:56;15.83;;;4.73;;
11541;SDS011;5827;49.482;7.716;2023-02-02T01:48:59;20.90;;;4.97;;
11541;SDS011;5827;49.482;7.716;2023-02-02T01:51:05;17.23;;;5.77;;
11541;SDS011;5827;49.482;7.716;2023-02-02T01:53:09;19.07;;;5.47;;
11541;SDS011;5827;49.482;7.716;2023-02-02T01:55:11;15.60;;;5.27;;
11541;SDS011;5827;49.482;7.716;2023-02-02T01:57:16;14.50;;;4.67;;
11541;SDS011;5827;49.482;7.716;2023-02-02T01:59:22;15.17;;;5.27;;
11541;SDS011;5827;49.482;7.716;2023-02-02T02:01:25;16.43;;;5.07;;
11541;SDS011;5827;49.482;7.716;2023-02-02T02:03:28;14.80;;;5.23;;
11541;SDS011;5827;49.482;7.716;2023-02-02T02:05:34;23.07;;;5.97;;
11541;SDS011;5827;49.482;7.716;2023-02-02T02:07:38;18.80;;;4.40;;
11541;SDS011;5827;49.482;7.716;2023-02-02T02:09:41;16.87;;;5.00;;
11541;SDS011;5827;49.482;7.716;2023-02-02T02:11:43;15.10;;;4.30;;
11541;SDS011;5827;49.482;7.716;2023-02-02T02:13:44;19.03;;;4.90;;
11541;SDS011;5827;49.482;7.716;2023-02-02T02:16:06;18.33;;;5.00;;
11541;SDS011;5827;49.482;7.716;2023-02-02T02:18:21;16.13;;;5.13;;
11541;SDS011;5827;49.482;7.716;2023-02-02T02:20:47;16.80;;;4.50;;
11541;SDS011;5827;49.482;7.716;2023-02-02T02:23:30;16.43;;;5.03;;
11541;SDS011;5827;49.482;7.716;2023-02-02T02:26:10;14.53;;;4.33;;
11541;SDS011;5827;49.482;7.716;2023-02-02T02:28:40;16.60;;;4.93;;
11541;SDS011;5827;49.482;7.716;2023-02-02T02:33:33;15.77;;;3.90;;
11541;SDS011;5827;49.482;7.716;2023-02-02T02:35:46;19.17;;;5.20;;
11541;SDS011;5827;49.482;7.716;2023-02-02T02:37:58;16.83;;;4.83;;
11541;SDS011;5827;49.482;7.716;2023-02-02T02:40:06;17.27;;;5.00;;
11541;SDS011;5827;49.482;7.716;2023-02-02T02:42:14;13.73;;;4.03;;
11541;SDS011;5827;49.482;7.716;2023-02-02T02:44:19;13.43;;;4.47;;
11541;SDS011;5827;49.482;7.716;2023-02-02T02:46:22;16.37;;;4.00;;
11541;SDS011;5827;49.482;7.716;2023-02-02T02:48:24;11.80;;;4.90;;
11541;SDS011;5827;49.482;7.716;2023-02-02T02:50:27;14.73;;;4.27;;
11541;SDS011;5827;49.482;7.716;2023-02-02T02:52:29;11.77;;;4.33;;
11541;SDS011;5827;49.482;7.716;2023-02-02T02:54:32;16.43;;;4.57;;
11541;SDS011;5827;49.482;7.716;2023-02-02T02:56:37;13.60;;;3.93;;
11541;SDS011;5827;49.482;7.716;2023-02-02T02:58:48;16.83;;;4.93;;
11541;SDS011;5827;49.482;7.716;2023-02-02T03:00:58;17.03;;;4.97;;
11541;SDS011;5827;49.482;7.716;2023-02-02T03:03:07;16.63;;;5.03;;
11541;SDS011;5827;49.482;7.716;2023-02-02T03:05:21;19.03;;;4.57;;
11541;SDS011;5827;49.482;7.716;2023-02-02T03:07:33;15.30;;;4.97;;
11541;SDS011;5827;49.482;7.716;2023-02-02T03:09:39;11.57;;;4.00;;
11541;SDS011;5827;49.482;7.716;2023-02-02T03:11:43;15.37;;;4.27;;
11541;SDS011;5827;49.482;7.716;2023-02-02T03:13:45;15.73;;;4.00;;
11541;SDS011;5827;49.482;7.716;2023-02-02T03:15:48;17.03;;;5.30;;
11541;SDS011;5827;49.482;7.716;2023-02-02T03:17:49;18.33;;;5.13;;
11541;SDS011;5827;49.482;7.716;2023-02-02T03:19:53;12.17;;;4.27;;
11541;SDS011;5827;49.482;7.716;2023-02-02T03:21:55;17.10;;;4.67;;
11541;SDS011;5827;49.482;7.716;2023-02-02T03:23:57;12.33;;;3.63;;
11541;SDS011;5827;49.482;7.716;2023-02-02T03:25:59;13.80;;;4.50;;
11541;SDS011;5827;49.482;7.716;2023-02-02T03:28:01;12.97;;;4.37;;
11541;SDS011;5827;49.482;7.716;2023-02-02T03:30:04;13.30;;;4.00;;
11541;SDS011;5827;49.482;7.716;2023-02-02T03:32:08;12.77;;;4.13;;
11541;SDS011;5827;49.482;7.716;2023-02-02T03:34:09;14.83;;;4.10;;
11541;SDS011;5827;49.482;7.716;2023-02-02T03:36:11;11.00;;;3.90;;
11541;SDS011;5827;49.482;7.716;2023-02-02T03:38:12;14.20;;;3.83;;
11541;SDS011;5827;49.482;7.716;2023-02-02T03:40:15;11.10;;;3.50;;
11541;SDS011;5827;49.482;7.716;2023-02-02T03:42:17;13.77;;;4.30;;
11541;SDS011;5827;49.482;7.716;2023-02-02T03:44:18;15.50;;;3.83;;
11541;SDS011;5827;49.482;7.716;2023-02-02T03:46:20;12.97;;;3.70;;
11541;SDS011;5827;49.482;7.716;2023-02-02T03:48:22;23.23;;;4.37;;
11541;SDS011;5827;49.482;7.716;2023-02-02T03:50:23;15.67;;;4.27;;
11541;SDS011;5827;49.482;7.716;2023-02-02T03:52:25;13.67;;;3.73;;
11541;SDS011;5827;49.482;7.716;2023-02-02T03:54:26;11.13;;;3.60;;
11541;SDS011;5827;49.482;7.716;2023-02-02T03:56:29;11.70;;;4.10;;
11541;SDS011;5827;49.482;7.716;2023-02-02T03:58:31;13.20;;;3.63;;
11541;SDS011;5827;49.482;7.716;2023-02-02T04:00:32;13.00;;;4.07;;
11541;SDS011;5827;49.482;7.716;2023-02-02T04:02:34;15.57;;;4.07;;
11541;SDS011;5827;49.482;7.716;2023-02-02T04:04:35;11.93;;;3.97;;
11541;SDS011;5827;49.482;7.716;2023-02-02T04:06:37;10.10;;;3.53;;
11541;SDS011;5827;49.482;7.716;2023-02-02T04:08:38;18.43;;;4.23;;
11541;SDS011;5827;49.482;7.716;2023-02-02T04:10:40;14.93;;;3.67;;
11541;SDS011;5827;49.482;7.716;2023-02-02T04:12:43;10.43;;;3.50;;
11541;SDS011;5827;49.482;7.716;2023-02-02T04:14:45;8.97;;;3.60;;
11541;SDS011;5827;49.482;7.716;2023-02-02T04:16:46;13.20;;;3.90;;
11541;SDS011;5827;49.482;7.716;2023-02-02T04:18:48;14.27;;;3.60;;
11541;SDS011;5827;49.482;7.716;2023-02-02T04:20:49;11.67;;;3.47;;
11541;SDS011;5827;49.482;7.716;2023-02-02T04:22:57;13.30;;;3.80;;
11541;SDS011;5827;49.482;7.716;2023-02-02T04:24:58;8.97;;;3.37;;
11541;SDS011;5827;49.482;7.716;2023-02-02T04:27:00;12.10;;;3.60;;
11541;SDS011;5827;49.482;7.716;2023-02-02T04:29:03;16.53;;;4.50;;
11541;SDS011;5827;49.482;7.716;2023-02-02T04:31:04;12.20;;;3.87;;
11541;SDS011;5827;49.482;7.716;2023-02-02T04:33:06;11.73;;;3.93;;
11541;SDS011;5827;49.482;7.716;2023-02-02T04:35:07;11.70;;;4.13;;
11541;SDS011;5827;49.482;7.716;2023-02-02T04:37:09;11.67;;;3.93;;
11541;SDS011;5827;49.482;7.716;2023-02-02T04:39:11;13.50;;;4.47;;
11541;SDS011;5827;49.482;7.716;2023-02-02T04:41:12;11.43;;;4.53;;
11541;SDS011;5827;49.482;7.716;2023-02-02T04:43:14;15.13;;;4.43;;
11541;SDS011;5827;49.482;7.716;2023-02-02T04:45:17;13.67;;;4.40;;
11541;SDS011;5827;49.482;7.716;2023-02-02T04:47:19;10.83;;;3.43;;
11541;SDS011;5827;49.482;7.716;2023-02-02T04:49:20;16.63;;;4.30;;
11541;SDS011;5827;49.482;7.716;2023-02-02T04:51:21;10.97;;;3.80;;
11541;SDS011;5827;49.482;7.716;2023-02-02T04:53:23;16.63;;;4.43;;
11541;SDS011;5827;49.482;7.716;2023-02-02T04:55:25;14.77;;;4.43;;
11541;SDS011;5827;49.482;7.716;2023-02-02T04:57:26;18.20;;;4.53;;
11541;SDS011;5827;49.482;7.716;2023-02-02T04:59:28;16.73;;;4.17;;
11541;SDS011;5827;49.482;7.716;2023-02-02T05:01:31;14.57;;;4.80;;
11541;SDS011;5827;49.482;7.716;2023-02-02T05:03:32;14.43;;;4.20;;
11541;SDS011;5827;49.482;7.716;2023-02-02T05:05:34;16.93;;;4.63;;
11541;SDS011;5827;49.482;7.716;2023-02-02T05:07:35;15.57;;;4.10;;
11541;SDS011;5827;49.482;7.716;2023-02-02T05:09:39;14.87;;;4.97;;
11541;SDS011;5827;49.482;7.716;2023-02-02T05:11:40;13.67;;;4.63;;
11541;SDS011;5827;49.482;7.716;2023-02-02T05:13:44;10.90;;;3.77;;
11541;SDS011;5827;49.482;7.716;2023-02-02T05:15:47;12.80;;;4.07;;
11541;SDS011;5827;49.482;7.716;2023-02-02T05:17:50;12.77;;;3.97;;
11541;SDS011;5827;49.482;7.716;2023-02-02T05:19:51;15.87;;;4.43;;
11541;SDS011;5827;49.482;7.716;2023-02-02T05:21:53;15.40;;;4.70;;
11541;SDS011;5827;49.482;7.716;2023-02-02T05:23:54;13.43;;;3.77;;
11541;SDS011;5827;49.482;7.716;2023-02-02T05:25:56;12.17;;;4.07;;
11541;SDS011;5827;49.482;7.716;2023-02-02T05:27:57;12.23;;;4.17;;
11541;SDS011;5827;49.482;7.716;2023-02-02T05:29:59;12.40;;;4.00;;
11541;SDS011;5827;49.482;7.716;2023-02-02T05:32:01;11.87;;;4.90;;
11541;SDS011;5827;49.482;7.716;2023-02-02T05:34:04;13.33;;;4.43;;
11541;SDS011;5827;49.482;7.716;2023-02-02T05:36:06;14.43;;;3.90;;
11541;SDS011;5827;49.482;7.716;2023-02-02T05:38:07;15.67;;;4.13;;
11541;SDS011;5827;49.482;7.716;2023-02-02T05:40:09;13.00;;;5.00;;
11541;SDS011;5827;49.482;7.716;2023-02-02T05:42:11;10.47;;;3.60;;
11541;SDS011;5827;49.482;7.716;2023-02-02T05:44:13;14.40;;;4.27;;
11541;SDS011;5827;49.482;7.716;2023-02-02T05:46:15;14.13;;;4.17;;
11541;SDS011;5827;49.482;7.716;2023-02-02T05:48:16;16.97;;;5.33;;
11541;SDS011;5827;49.482;7.716;2023-02-02T05:50:19;14.00;;;3.93;;
11541;SDS011;5827;49.482;7.716;2023-02-02T05:52:21;14.53;;;3.93;;
11541;SDS011;5827;49.482;7.716;2023-02-02T05:54:25;17.60;;;4.23;;
11541;SDS011;5827;49.482;7.716;2023-02-02T05:56:26;11.03;;;3.97;;
11541;SDS011;5827;49.482;7.716;2023-02-02T05:58:27;16.47;;;4.03;;
11541;SDS011;5827;49.482;7.716;2023-02-02T06:00:29;14.37;;;4.07;;
11541;SDS011;5827;49.482;7.716;2023-02-02T06:02:31;15.50;;;4.40;;
11541;SDS011;5827;49.482;7.716;2023-02-02T06:04:32;10.80;;;4.17;;
11541;SDS011;5827;49.482;7.716;2023-02-02T06:06:35;11.97;;;4.37;;
11541;SDS011;5827;49.482;7.716;2023-02-02T06:08:37;14.33;;;4.87;;
11541;SDS011;5827;49.482;7.716;2023-02-02T06:10:38;9.37;;;4.07;;
11541;SDS011;5827;49.482;7.716;2023-02-02T06:12:40;11.47;;;4.53;;
11541;SDS011;5827;49.482;7.716;2023-02-02T06:14:43;15.33;;;5.17;;
11541;SDS011;5827;49.482;7.716;2023-02-02T06:16:45;12.90;;;4.43;;
11541;SDS011;5827;49.482;7.716;2023-02-02T06:18:46;20.20;;;5.60;;
11541;SDS011;5827;49.482;7.716;2023-02-02T06:20:54;15.10;;;4.63;;
11541;SDS011;5827;49.482;7.716;2023-02-02T06:22:58;15.63;;;4.33;;
11541;SDS011;5827;49.482;7.716;2023-02-02T06:24:59;19.33;;;4.60;;
11541;SDS011;5827;49.482;7.716;2023-02-02T06:27:03;15.13;;;5.17;;
11541;SDS011;5827;49.482;7.716;2023-02-02T06:29:04;12.27;;;4.57;;
11541;SDS011;5827;49.482;7.716;2023-02-02T06:31:07;17.40;;;5.20;;
11541;SDS011;5827;49.482;7.716;2023-02-02T06:33:10;17.83;;;5.50;;
11541;SDS011;5827;49.482;7.716;2023-02-02T06:35:11;17.30;;;5.13;;
11541;SDS011;5827;49.482;7.716;2023-02-02T06:37:13;19.50;;;5.43;;
11541;SDS011;5827;49.482;7.716;2023-02-02T06:39:16;13.63;;;5.00;;
11541;SDS011;5827;49.482;7.716;2023-02-02T06:41:17;14.47;;;5.03;;
11541;SDS011;5827;49.482;7.716;2023-02-02T06:43:20;22.80;;;6.20;;
11541;SDS011;5827;49.482;7.716;2023-02-02T06:45:21;17.80;;;5.17;;
11541;SDS011;5827;49.482;7.716;2023-02-02T06:47:23;18.03;;;5.40;;
11541;SDS011;5827;49.482;7.716;2023-02-02T06:49:24;14.40;;;5.60;;
11541;SDS011;5827;49.482;7.716;2023-02-02T06:51:26;22.00;;;5.10;;
11541;SDS011;5827;49.482;7.716;2023-02-02T06:53:27;16.47;;;5.47;;
11541;SDS011;5827;49.482;7.716;2023-02-02T06:55:30;21.40;;;6.00;;
11541;SDS011;5827;49.482;7.716;2023-02-02T06:57:32;20.83;;;8.83;;
11541;SDS011;5827;49.482;7.716;2023-02-02T06:59:34;18.77;;;6.20;;
11541;SDS011;5827;49.482;7.716;2023-02-02T07:01:35;17.00;;;6.30;;
11541;SDS011;5827;49.482;7.716;2023-02-02T07:03:37;20.13;;;6.67;;
11541;SDS011;5827;49.482;7.716;2023-02-02T07:05:39;18.70;;;6.40;;
11541;SDS011;5827;49.482;7.716;2023-02-02T07:07:40;15.47;;;5.77;;
11541;SDS011;5827;49.482;7.716;2023-02-02T07:09:42;17.17;;;5.17;;
11541;SDS011;5827;49.482;7.716;2023-02-02T07:11:45;18.13;;;5.60;;
11541;SDS011;5827;49.482;7.716;2023-02-02T07:13:47;12.83;;;5.13;;
11541;SDS011;5827;49.482;7.716;2023-02-02T07:15:49;21.07;;;5.73;;
11541;SDS011;5827;49.482;7.716;2023-02-02T07:17:51;17.20;;;6.20;;
11541;SDS011;5827;49.482;7.716;2023-02-02T07:19:54;20.93;;;6.63;;
11541;SDS011;5827;49.482;7.716;2023-02-02T07:21:55;16.43;;;6.30;;
11541;SDS011;5827;49.482;7.716;2023-02-02T07:23:57;18.40;;;6.03;;
11541;SDS011;5827;49.482;7.716;2023-02-02T07:25:59;22.47;;;6.13;;
11541;SDS011;5827;49.482;7.716;2023-02-02T07:28:03;17.40;;;5.83;;
11541;SDS011;5827;49.482;7.716;2023-02-02T07:30:05;14.20;;;5.43;;
11541;SDS011;5827;49.482;7.716;2023-02-02T07:32:08;16.93;;;5.30;;
11541;SDS011;5827;49.482;7.716;2023-02-02T07:34:09;19.13;;;5.63;;
11541;SDS011;5827;49.482;7.716;2023-02-02T07:36:11;12.70;;;5.40;;
11541;SDS011;5827;49.482;7.716;2023-02-02T07:38:15;18.67;;;5.33;;
11541;SDS011;5827;49.482;7.716;2023-02-02T07:40:16;16.17;;;5.37;;
11541;SDS011;5827;49.482;7.716;2023-02-02T07:42:18;19.20;;;5.90;;
11541;SDS011;5827;49.482;7.716;2023-02-02T07:44:21;17.53;;;5.60;;
11541;SDS011;5827;49.482;7.716;2023-02-02T07:46:22;13.07;;;5.47;;
11541;SDS011;5827;49.482;7.716;2023-02-02T07:48:24;20.83;;;6.20;;
11541;SDS011;5827;49.482;7.716;2023-02-02T07:50:26;18.07;;;5.77;;
11541;SDS011;5827;49.482;7.716;2023-02-02T07:52:28;22.50;;;6.30;;
11541;SDS011;5827;49.482;7.716;2023-02-02T07:54:30;13.00;;;5.20;;
11541;SDS011;5827;49.482;7.716;2023-02-02T07:56:32;23.37;;;5.47;;
11541;SDS011;5827;49.482;7.716;2023-02-02T07:58:34;18.20;;;5.80;;
11541;SDS011;5827;49.482;7.716;2023-02-02T08:00:37;17.67;;;5.93;;
11541;SDS011;5827;49.482;7.716;2023-02-02T08:02:38;13.37;;;5.10;;
11541;SDS011;5827;49.482;7.716;2023-02-02T08:04:40;21.10;;;6.40;;
11541;SDS011;5827;49.482;7.716;2023-02-02T08:06:41;16.13;;;5.33;;
11541;SDS011;5827;49.482;7.716;2023-02-02T08:08:43;17.50;;;4.97;;
11541;SDS011;5827;49.482;7.716;2023-02-02T08:10:46;19.27;;;5.33;;
11541;SDS011;5827;49.482;7.716;2023-02-02T08:12:48;17.07;;;5.20;;
11541;SDS011;5827;49.482;7.716;2023-02-02T08:14:49;15.13;;;5.40;;
11541;SDS011;5827;49.482;7.716;2023-02-02T08:16:52;15.80;;;4.60;;
11541;SDS011;5827;49.482;7.716;2023-02-02T08:18:54;14.93;;;4.60;;
11541;SDS011;5827;49.482;7.716;2023-02-02T08:20:57;14.53;;;4.63;;
11541;SDS011;5827;49.482;7.716;2023-02-02T08:22:58;15.23;;;4.73;;
11541;SDS011;5827;49.482;7.716;2023-02-02T08:25:00;14.03;;;4.40;;
11541;SDS011;5827;49.482;7.716;2023-02-02T08:27:01;12.03;;;4.50;;
11541;SDS011;5827;49.482;7.716;2023-02-02T08:29:04;13.73;;;4.73;;
11541;SDS011;5827;49.482;7.716;2023-02-02T08:31:07;12.77;;;3.90;;
11541;SDS011;5827;49.482;7.716;2023-02-02T08:33:11;13.57;;;4.10;;
11541;SDS011;5827;49.482;7.716;2023-02-02T08:35:13;16.13;;;4.03;;
11541;SDS011;5827;49.482;7.716;2023-02-02T08:37:14;9.60;;;3.67;;
11541;SDS011;5827;49.482;7.716;2023-02-02T08:39:16;13.77;;;3.93;;
11541;SDS011;5827;49.482;7.716;2023-02-02T08:41:18;16.00;;;3.93;;
11541;SDS011;5827;49.482;7.716;2023-02-02T08:43:20;18.23;;;5.57;;
11541;SDS011;5827;49.482;7.716;2023-02-02T08:45:22;11.73;;;4.07;;
11541;SDS011;5827;49.482;7.716;2023-02-02T08:47:27;10.20;;;4.20;;
11541;SDS011;5827;49.482;7.716;2023-02-02T08:49:30;15.80;;;4.20;;
11541;SDS011;5827;49.482;7.716;2023-02-02T08:51:32;8.33;;;3.30;;
11541;SDS011;5827;49.482;7.716;2023-02-02T08:53:33;12.00;;;3.90;;
11541;SDS011;5827;49.482;7.716;2023-02-02T08:55:35;10.90;;;3.93;;
11541;SDS011;5827;49.482;7.716;2023-02-02T08:57:36;11.67;;;3.40;;
11541;SDS011;5827;49.482;7.716;2023-02-02T08:59:38;14.27;;;4.47;;
11541;SDS011;5827;49.482;7.716;2023-02-02T09:01:39;10.80;;;3.47;;
11541;SDS011;5827;49.482;7.716;2023-02-02T09:03:41;11.07;;;3.53;;
11541;SDS011;5827;49.482;7.716;2023-02-02T09:05:44;13.17;;;4.30;;
11541;SDS011;5827;49.482;7.716;2023-02-02T09:07:46;9.80;;;3.50;;
11541;SDS011;5827;49.482;7.716;2023-02-02T09:09:48;12.83;;;3.60;;
11541;SDS011;5827;49.482;7.716;2023-02-02T09:11:51;12.40;;;4.97;;
11541;SDS011;5827;49.482;7.716;2023-02-02T09:13:54;7.70;;;2.87;;
11541;SDS011;5827;49.482;7.716;2023-02-02T09:15:58;17.60;;;4.00;;
11541;SDS011;5827;49.482;7.716;2023-02-02T09:18:00;8.70;;;3.53;;
11541;SDS011;5827;49.482;7.716;2023-02-02T09:20:02;12.50;;;3.30;;
11541;SDS011;5827;49.482;7.716;2023-02-02T09:22:06;13.23;;;3.20;;
11541;SDS011;5827;49.482;7.716;2023-02-02T09:24:08;10.07;;;3.30;;
11541;SDS011;5827;49.482;7.716;2023-02-02T09:26:11;12.57;;;3.33;;
11541;SDS011;5827;49.482;7.716;2023-02-02T09:28:14;6.33;;;3.00;;
11541;SDS011;5827;49.482;7.716;2023-02-02T09:30:15;15.67;;;3.53;;
11541;SDS011;5827;49.482;7.716;2023-02-02T09:32:18;9.80;;;2.90;;
11541;SDS011;5827;49.482;7.716;2023-02-02T09:34:19;12.53;;;3.50;;
11541;SDS011;5827;49.482;7.716;2023-02-02T09:36:21;12.27;;;2.90;;
11541;SDS011;5827;49.482;7.716;2023-02-02T09:38:27;9.13;;;2.63;;
11541;SDS011;5827;49.482;7.716;2023-02-02T09:40:29;13.83;;;3.80;;
11541;SDS011;5827;49.482;7.716;2023-02-02T09:42:36;9.30;;;2.97;;
11541;SDS011;5827;49.482;7.716;2023-02-02T09:44:56;10.53;;;3.33;;
11541;SDS011;5827;49.482;7.716;2023-02-02T09:47:08;9.87;;;3.60;;
11541;SDS011;5827;49.482;7.716;2023-02-02T09:49:18;12.83;;;3.47;;
11541;SDS011;5827;49.482;7.716;2023-02-02T09:51:24;8.57;;;3.57;;
11541;SDS011;5827;49.482;7.716;2023-02-02T09:53:34;8.90;;;3.73;;
11541;SDS011;5827;49.482;7.716;2023-02-02T09:55:40;9.93;;;3.13;;
11541;SDS011;5827;49.482;7.716;2023-02-02T09:57:44;11.07;;;3.93;;
11541;SDS011;5827;49.482;7.716;2023-02-02T09:59:49;17.03;;;4.00;;
11541;SDS011;5827;49.482;7.716;2023-02-02T10:01:54;10.33;;;3.70;;
11541;SDS011;5827;49.482;7.716;2023-02-02T10:03:59;14.93;;;4.17;;
11541;SDS011;5827;49.482;7.716;2023-02-02T10:06:10;14.50;;;3.87;;
11541;SDS011;5827;49.482;7.716;2023-02-02T10:08:26;9.90;;;3.40;;
11541;SDS011;5827;49.482;7.716;2023-02-02T10:10:36;15.80;;;4.13;;
11541;SDS011;5827;49.482;7.716;2023-02-02T10:12:43;13.47;;;3.93;;
11541;SDS011;5827;49.482;7.716;2023-02-02T10:14:53;14.13;;;4.87;;
11541;SDS011;5827;49.482;7.716;2023-02-02T10:17:02;12.13;;;4.80;;
11541;SDS011;5827;49.482;7.716;2023-02-02T10:19:18;15.50;;;6.10;;
11541;SDS011;5827;49.482;7.716;2023-02-02T10:21:25;14.83;;;5.13;;
11541;SDS011;5827;49.482;7.716;2023-02-02T10:23:33;16.97;;;4.67;;
11541;SDS011;5827;49.482;7.716;2023-02-02T10:25:37;13.30;;;4.47;;
11541;SDS011;5827;49.482;7.716;2023-02-02T10:27:51;12.13;;;3.63;;
11541;SDS011;5827;49.482;7.716;2023-02-02T10:29:58;16.53;;;5.30;;
11541;SDS011;5827;49.482;7.716;2023-02-02T10:32:02;14.57;;;4.17;;
11541;SDS011;5827;49.482;7.716;2023-02-02T10:34:13;13.07;;;4.00;;
11541;SDS011;5827;49.482;7.716;2023-02-02T10:36:19;11.77;;;4.00;;
11541;SDS011;5827;49.482;7.716;2023-02-02T10:38:31;10.50;;;3.73;;
11541;SDS011;5827;49.482;7.716;2023-02-02T10:40:41;14.50;;;6.50;;
11541;SDS011;5827;49.482;7.716;2023-02-02T10:42:53;11.60;;;4.53;;
11541;SDS011;5827;49.482;7.716;2023-02-02T10:45:22;10.03;;;4.20;;
11541;SDS011;5827;49.482;7.716;2023-02-02T10:47:25;16.90;;;4.40;;
11541;SDS011;5827;49.482;7.716;2023-02-02T10:49:29;13.40;;;4.50;;
11541;SDS011;5827;49.482;7.716;2023-02-02T10:51:34;12.10;;;4.03;;
11541;SDS011;5827;49.482;7.716;2023-02-02T10:53:36;11.00;;;3.40;;
11541;SDS011;5827;49.482;7.716;2023-02-02T10:55:39;10.20;;;3.90;;
11541;SDS011;5827;49.482;7.716;2023-02-02T10:57:48;8.80;;;3.83;;
11541;SDS011;5827;49.482;7.716;2023-02-02T10:59:56;11.33;;;3.27;;
11541;SDS011;5827;49.482;7.716;2023-02-02T11:02:06;12.70;;;3.33;;
11541;SDS011;5827;49.482;7.716;2023-02-02T11:04:10;10.13;;;3.27;;
11541;SDS011;5827;49.482;7.716;2023-02-02T11:06:29;8.87;;;3.20;;
11541;SDS011;5827;49.482;7.716;2023-02-02T11:08:49;9.77;;;2.73;;
11541;SDS011;5827;49.482;7.716;2023-02-02T11:10:57;5.30;;;3.10;;
11541;SDS011;5827;49.482;7.716;2023-02-02T11:13:11;8.20;;;2.43;;
11541;SDS011;5827;49.482;7.716;2023-02-02T11:15:24;9.17;;;3.13;;
11541;SDS011;5827;49.482;7.716;2023-02-02T11:17:28;9.80;;;2.83;;
11541;SDS011;5827;49.482;7.716;2023-02-02T11:19:30;8.77;;;2.77;;
11541;SDS011;5827;49.482;7.716;2023-02-02T11:21:33;9.67;;;2.80;;
11541;SDS011;5827;49.482;7.716;2023-02-02T11:23:36;7.37;;;2.13;;
11541;SDS011;5827;49.482;7.716;2023-02-02T11:25:38;10.87;;;2.77;;
11541;SDS011;5827;49.482;7.716;2023-02-02T11:27:41;8.37;;;2.60;;
11541;SDS011;5827;49.482;7.716;2023-02-02T11:29:44;10.47;;;3.33;;
11541;SDS011;5827;49.482;7.716;2023-02-02T11:31:47;11.43;;;2.80;;
11541;SDS011;5827;49.482;7.716;2023-02-02T11:33:49;9.83;;;3.00;;
11541;SDS011;5827;49.482;7.716;2023-02-02T11:35:52;6.97;;;2.70;;
11541;SDS011;5827;49.482;7.716;2023-02-02T11:37:56;7.60;;;2.60;;
11541;SDS011;5827;49.482;7.716;2023-02-02T11:40:17;7.97;;;2.40;;
11541;SDS011;5827;49.482;7.716;2023-02-02T11:42:25;8.17;;;2.70;;
11541;SDS011;5827;49.482;7.716;2023-02-02T11:44:29;8.80;;;2.60;;
11541;SDS011;5827;49.482;7.716;2023-02-02T11:46:33;12.80;;;2.70;;
11541;SDS011;5827;49.482;7.716;2023-02-02T11:48:38;7.30;;;2.77;;
11541;SDS011;5827;49.482;7.716;2023-02-02T11:50:48;9.10;;;2.90;;
11541;SDS011;5827;49.482;7.716;2023-02-02T11:52:52;9.37;;;2.90;;
11541;SDS011;5827;49.482;7.716;2023-02-02T11:54:55;7.97;;;2.97;;
11541;SDS011;5827;49.482;7.716;2023-02-02T11:56:59;10.77;;;2.70;;
11541;SDS011;5827;49.482;7.716;2023-02-02T11:59:03;7.77;;;2.73;;
11541;SDS011;5827;49.482;7.716;2023-02-02T12:01:05;9.50;;;2.50;;
11541;SDS011;5827;49.482;7.716;2023-02-02T12:03:26;7.57;;;2.87;;
11541;SDS011;5827;49.482;7.716;2023-02-02T12:05:33;12.23;;;3.50;;
11541;SDS011;5827;49.482;7.716;2023-02-02T12:07:36;8.20;;;2.87;;
11541;SDS011;5827;49.482;7.716;2023-02-02T12:09:37;9.63;;;2.93;;
11541;SDS011;5827;49.482;7.716;2023-02-02T12:11:41;7.20;;;2.47;;
11541;SDS011;5827;49.482;7.716;2023-02-02T12:13:56;9.03;;;2.63;;
11541;SDS011;5827;49.482;7.716;2023-02-02T12:16:16;8.27;;;2.70;;
11541;SDS011;5827;49.482;7.716;2023-02-02T12:18:33;10.83;;;2.97;;
11541;SDS011;5827;49.482;7.716;2023-02-02T12:20:41;8.97;;;3.07;;
11541;SDS011;5827;49.482;7.716;2023-02-02T12:23:02;12.67;;;2.97;;
11541;SDS011;5827;49.482;7.716;2023-02-02T12:25:29;10.20;;;2.70;;
11541;SDS011;5827;49.482;7.716;2023-02-02T12:27:43;9.23;;;2.93;;
11541;SDS011;5827;49.482;7.716;2023-02-02T12:29:55;9.63;;;3.20;;
11541;SDS011;5827;49.482;7.716;2023-02-02T12:32:12;10.97;;;2.93;;
11541;SDS011;5827;49.482;7.716;2023-02-02T12:34:24;9.63;;;3.33;;
11541;SDS011;5827;49.482;7.716;2023-02-02T12:36:36;7.73;;;2.40;;